sensor_id;sensor_type;location;lat;lon;timestamp;temperature;humidity
29817;DHT22;16805;52.956;5.906;2022-09-17T00:01:08;12.00;99.90
29817;DHT22;16805;52.956;5.906;2022-09-17T00:03:34;12.00;99.90
29817;DHT22;16805;52.956;5.906;2022-09-17T00:06:06;11.90;99.90
29817;DHT22;16805;52.956;5.906;2022-09-17T00:08:33;11.90;99.90
29817;DHT22;16805;52.956;5.906;2022-09-17T00:11:18;11.90;99.90
29817;DHT22;16805;52.956;5.906;2022-09-17T00:13:46;11.90;99.90
29817;DHT22;16805;52.956;5.906;2022-09-17T00:16:12;12.00;99.90
29817;DHT22;16805;52.956;5.906;2022-09-17T00:18:45;12.00;99.90
29817;DHT22;16805;52.956;5.906;2022-09-17T00:21:16;12.00;99.90
29817;DHT22;16805;52.956;5.906;2022-09-17T00:24:02;12.00;99.90
29817;DHT22;16805;52.956;5.906;2022-09-17T00:26:29;12.00;99.90
29817;DHT22;16805;52.956;5.906;2022-09-17T00:28:57;12.10;99.90
29817;DHT22;16805;52.956;5.906;2022-09-17T00:31:23;12.00;99.90
29817;DHT22;16805;52.956;5.906;2022-09-17T00:33:49;12.00;99.90
29817;DHT22;16805;52.956;5.906;2022-09-17T00:36:15;11.90;99.90
29817;DHT22;16805;52.956;5.906;2022-09-17T00:38:41;11.90;99.90
29817;DHT22;16805;52.956;5.906;2022-09-17T00:41:08;11.80;99.90
29817;DHT22;16805;52.956;5.906;2022-09-17T00:43:44;11.80;99.90
29817;DHT22;16805;52.956;5.906;2022-09-17T00:49:08;11.70;99.90
29817;DHT22;16805;52.956;5.906;2022-09-17T00:51:39;11.60;99.90
29817;DHT22;16805;52.956;5.906;2022-09-17T00:54:08;11.60;99.90
29817;DHT22;16805;52.956;5.906;2022-09-17T00:56:37;11.60;99.90
29817;DHT22;16805;52.956;5.906;2022-09-17T00:59:04;11.60;99.90
29817;DHT22;16805;52.956;5.906;2022-09-17T01:01:31;11.60;99.90
29817;DHT22;16805;52.956;5.906;2022-09-17T01:03:56;11.60;99.90
29817;DHT22;16805;52.956;5.906;2022-09-17T01:06:33;11.60;99.90
29817;DHT22;16805;52.956;5.906;2022-09-17T01:12:01;11.60;99.90
29817;DHT22;16805;52.956;5.906;2022-09-17T01:17:38;11.60;99.90
29817;DHT22;16805;52.956;5.906;2022-09-17T01:28:52;11.60;99.90
29817;DHT22;16805;52.956;5.906;2022-09-17T01:31:28;11.60;99.90
29817;DHT22;16805;52.956;5.906;2022-09-17T01:34:11;11.60;99.90
29817;DHT22;16805;52.956;5.906;2022-09-17T01:37:11;11.50;99.90
29817;DHT22;16805;52.956;5.906;2022-09-17T01:45:24;11.50;99.90
29817;DHT22;16805;52.956;5.906;2022-09-17T01:48:02;11.60;99.90
29817;DHT22;16805;52.956;5.906;2022-09-17T01:50:35;11.60;99.90
29817;DHT22;16805;52.956;5.906;2022-09-17T01:53:03;11.60;99.90
29817;DHT22;16805;52.956;5.906;2022-09-17T01:55:32;11.60;99.90
29817;DHT22;16805;52.956;5.906;2022-09-17T01:58:45;11.70;99.90
29817;DHT22;16805;52.956;5.906;2022-09-17T02:00:55;11.70;99.90
29817;DHT22;16805;52.956;5.906;2022-09-17T02:03:25;11.70;99.90
29817;DHT22;16805;52.956;5.906;2022-09-17T02:06:02;11.70;99.90
29817;DHT22;16805;52.956;5.906;2022-09-17T02:08:38;11.60;99.90
29817;DHT22;16805;52.956;5.906;2022-09-17T02:11:08;11.60;99.90
29817;DHT22;16805;52.956;5.906;2022-09-17T02:13:42;11.70;99.90
29817;DHT22;16805;52.956;5.906;2022-09-17T02:16:25;11.70;99.90
29817;DHT22;16805;52.956;5.906;2022-09-17T02:19:15;11.60;99.90
29817;DHT22;16805;52.956;5.906;2022-09-17T02:24:40;11.70;99.90
29817;DHT22;16805;52.956;5.906;2022-09-17T02:30:06;11.70;99.90
29817;DHT22;16805;52.956;5.906;2022-09-17T02:32:32;11.70;99.90
29817;DHT22;16805;52.956;5.906;2022-09-17T02:34:58;11.70;99.90
29817;DHT22;16805;52.956;5.906;2022-09-17T02:37:23;11.70;99.90
29817;DHT22;16805;52.956;5.906;2022-09-17T02:39:49;11.70;99.90
29817;DHT22;16805;52.956;5.906;2022-09-17T02:45:12;11.60;99.90
29817;DHT22;16805;52.956;5.906;2022-09-17T02:48:07;11.70;99.90
29817;DHT22;16805;52.956;5.906;2022-09-17T02:56:48;11.70;99.90
29817;DHT22;16805;52.956;5.906;2022-09-17T03:02:27;11.60;99.90
29817;DHT22;16805;52.956;5.906;2022-09-17T03:04:55;11.60;99.90
29817;DHT22;16805;52.956;5.906;2022-09-17T03:07:22;11.60;99.90
29817;DHT22;16805;52.956;5.906;2022-09-17T03:09:47;11.60;99.90
29817;DHT22;16805;52.956;5.906;2022-09-17T03:12:14;11.60;99.90
29817;DHT22;16805;52.956;5.906;2022-09-17T03:14:40;11.70;99.90
29817;DHT22;16805;52.956;5.906;2022-09-17T03:17:05;11.70;99.90
29817;DHT22;16805;52.956;5.906;2022-09-17T03:19:31;11.80;99.90
29817;DHT22;16805;52.956;5.906;2022-09-17T03:21:57;11.70;99.90
29817;DHT22;16805;52.956;5.906;2022-09-17T03:24:22;11.70;99.90
29817;DHT22;16805;52.956;5.906;2022-09-17T03:26:48;11.60;99.90
29817;DHT22;16805;52.956;5.906;2022-09-17T03:29:15;11.60;99.90
29817;DHT22;16805;52.956;5.906;2022-09-17T03:31:41;11.60;99.90
29817;DHT22;16805;52.956;5.906;2022-09-17T03:34:07;11.60;99.90
29817;DHT22;16805;52.956;5.906;2022-09-17T03:36:35;11.50;99.90
29817;DHT22;16805;52.956;5.906;2022-09-17T03:39:01;11.40;99.90
29817;DHT22;16805;52.956;5.906;2022-09-17T03:41:27;11.40;99.90
29817;DHT22;16805;52.956;5.906;2022-09-17T03:43:53;11.40;99.90
29817;DHT22;16805;52.956;5.906;2022-09-17T03:46:19;11.40;99.90
29817;DHT22;16805;52.956;5.906;2022-09-17T03:48:44;11.40;99.90
29817;DHT22;16805;52.956;5.906;2022-09-17T03:51:11;11.30;99.90
29817;DHT22;16805;52.956;5.906;2022-09-17T03:53:36;11.30;99.90
29817;DHT22;16805;52.956;5.906;2022-09-17T03:56:03;11.30;99.90
29817;DHT22;16805;52.956;5.906;2022-09-17T03:58:30;11.30;99.90
29817;DHT22;16805;52.956;5.906;2022-09-17T04:00:56;11.30;99.90
29817;DHT22;16805;52.956;5.906;2022-09-17T04:03:26;11.30;99.90
29817;DHT22;16805;52.956;5.906;2022-09-17T04:05:52;11.30;99.90
29817;DHT22;16805;52.956;5.906;2022-09-17T04:08:18;11.30;99.90
29817;DHT22;16805;52.956;5.906;2022-09-17T04:10:45;11.30;99.90
29817;DHT22;16805;52.956;5.906;2022-09-17T04:13:11;11.30;99.90
29817;DHT22;16805;52.956;5.906;2022-09-17T04:15:37;11.30;99.90
29817;DHT22;16805;52.956;5.906;2022-09-17T04:18:04;11.20;99.90
29817;DHT22;16805;52.956;5.906;2022-09-17T04:20:29;11.20;99.90
29817;DHT22;16805;52.956;5.906;2022-09-17T04:22:55;11.20;99.90
29817;DHT22;16805;52.956;5.906;2022-09-17T04:25:21;11.10;99.90
29817;DHT22;16805;52.956;5.906;2022-09-17T04:27:46;11.10;99.90
29817;DHT22;16805;52.956;5.906;2022-09-17T04:30:13;11.10;99.90
29817;DHT22;16805;52.956;5.906;2022-09-17T04:32:39;11.00;99.90
29817;DHT22;16805;52.956;5.906;2022-09-17T04:35:05;11.00;99.90
29817;DHT22;16805;52.956;5.906;2022-09-17T04:37:30;11.00;99.90
29817;DHT22;16805;52.956;5.906;2022-09-17T04:39:56;11.00;99.90
29817;DHT22;16805;52.956;5.906;2022-09-17T04:42:22;11.10;99.90
29817;DHT22;16805;52.956;5.906;2022-09-17T04:44:48;11.10;99.90
29817;DHT22;16805;52.956;5.906;2022-09-17T04:47:14;11.10;99.90
29817;DHT22;16805;52.956;5.906;2022-09-17T04:49:39;11.10;99.90
29817;DHT22;16805;52.956;5.906;2022-09-17T04:52:05;11.20;99.90
29817;DHT22;16805;52.956;5.906;2022-09-17T04:54:31;11.20;99.90
29817;DHT22;16805;52.956;5.906;2022-09-17T04:56:56;11.20;99.90
29817;DHT22;16805;52.956;5.906;2022-09-17T04:59:22;11.20;99.90
29817;DHT22;16805;52.956;5.906;2022-09-17T05:01:48;11.20;99.90
29817;DHT22;16805;52.956;5.906;2022-09-17T05:04:14;11.20;99.90
29817;DHT22;16805;52.956;5.906;2022-09-17T05:06:40;11.10;99.90
29817;DHT22;16805;52.956;5.906;2022-09-17T05:09:06;11.10;99.90
29817;DHT22;16805;52.956;5.906;2022-09-17T05:11:32;11.10;99.90
29817;DHT22;16805;52.956;5.906;2022-09-17T05:13:57;11.20;99.90
29817;DHT22;16805;52.956;5.906;2022-09-17T05:16:23;11.20;99.90
29817;DHT22;16805;52.956;5.906;2022-09-17T05:18:48;11.10;99.90
29817;DHT22;16805;52.956;5.906;2022-09-17T05:21:16;11.10;99.90
29817;DHT22;16805;52.956;5.906;2022-09-17T05:23:42;11.10;99.90
29817;DHT22;16805;52.956;5.906;2022-09-17T05:26:07;11.10;99.90
29817;DHT22;16805;52.956;5.906;2022-09-17T05:28:36;11.10;99.90
29817;DHT22;16805;52.956;5.906;2022-09-17T05:31:02;11.20;99.90
29817;DHT22;16805;52.956;5.906;2022-09-17T05:33:28;11.20;99.90
29817;DHT22;16805;52.956;5.906;2022-09-17T05:35:53;11.20;99.90
29817;DHT22;16805;52.956;5.906;2022-09-17T05:38:19;11.10;99.90
29817;DHT22;16805;52.956;5.906;2022-09-17T05:40:45;11.10;99.90
29817;DHT22;16805;52.956;5.906;2022-09-17T05:43:11;11.10;99.90
29817;DHT22;16805;52.956;5.906;2022-09-17T05:45:37;11.10;99.90
29817;DHT22;16805;52.956;5.906;2022-09-17T05:48:05;11.10;99.90
29817;DHT22;16805;52.956;5.906;2022-09-17T05:50:32;11.10;99.90
29817;DHT22;16805;52.956;5.906;2022-09-17T05:53:06;11.10;99.90
29817;DHT22;16805;52.956;5.906;2022-09-17T05:55:33;11.10;99.90
29817;DHT22;16805;52.956;5.906;2022-09-17T05:58:31;11.20;99.90
29817;DHT22;16805;52.956;5.906;2022-09-17T06:01:00;11.20;99.90
29817;DHT22;16805;52.956;5.906;2022-09-17T06:03:25;11.20;99.90
29817;DHT22;16805;52.956;5.906;2022-09-17T06:05:56;11.20;99.90
29817;DHT22;16805;52.956;5.906;2022-09-17T06:08:27;11.10;99.90
29817;DHT22;16805;52.956;5.906;2022-09-17T06:10:53;11.00;99.90
29817;DHT22;16805;52.956;5.906;2022-09-17T06:13:19;11.00;99.90
29817;DHT22;16805;52.956;5.906;2022-09-17T06:15:50;11.00;99.90
29817;DHT22;16805;52.956;5.906;2022-09-17T06:18:16;11.00;99.90
29817;DHT22;16805;52.956;5.906;2022-09-17T06:20:41;11.00;99.90
29817;DHT22;16805;52.956;5.906;2022-09-17T06:23:07;11.00;99.90
29817;DHT22;16805;52.956;5.906;2022-09-17T06:25:32;11.00;99.90
29817;DHT22;16805;52.956;5.906;2022-09-17T06:28:01;11.20;99.90
29817;DHT22;16805;52.956;5.906;2022-09-17T06:30:27;11.40;99.90
29817;DHT22;16805;52.956;5.906;2022-09-17T06:32:53;11.60;99.90
29817;DHT22;16805;52.956;5.906;2022-09-17T06:35:18;11.70;99.90
29817;DHT22;16805;52.956;5.906;2022-09-17T06:37:44;11.80;99.90
29817;DHT22;16805;52.956;5.906;2022-09-17T06:40:09;11.80;99.90
29817;DHT22;16805;52.956;5.906;2022-09-17T06:42:35;11.70;99.90
29817;DHT22;16805;52.956;5.906;2022-09-17T06:45:01;11.70;99.90
29817;DHT22;16805;52.956;5.906;2022-09-17T06:47:26;11.70;99.90
29817;DHT22;16805;52.956;5.906;2022-09-17T06:49:52;11.70;99.90
29817;DHT22;16805;52.956;5.906;2022-09-17T06:52:21;11.70;99.90
29817;DHT22;16805;52.956;5.906;2022-09-17T06:54:47;11.80;99.90
29817;DHT22;16805;52.956;5.906;2022-09-17T06:57:12;12.10;99.90
29817;DHT22;16805;52.956;5.906;2022-09-17T06:59:38;12.30;99.90
29817;DHT22;16805;52.956;5.906;2022-09-17T07:02:04;12.60;99.90
29817;DHT22;16805;52.956;5.906;2022-09-17T07:04:29;12.80;99.90
29817;DHT22;16805;52.956;5.906;2022-09-17T07:06:55;12.80;99.90
29817;DHT22;16805;52.956;5.906;2022-09-17T07:09:20;12.90;99.90
29817;DHT22;16805;52.956;5.906;2022-09-17T07:11:46;12.90;99.90
29817;DHT22;16805;52.956;5.906;2022-09-17T07:14:12;12.90;99.90
29817;DHT22;16805;52.956;5.906;2022-09-17T07:16:37;12.90;99.90
29817;DHT22;16805;52.956;5.906;2022-09-17T07:19:03;13.00;99.90
29817;DHT22;16805;52.956;5.906;2022-09-17T07:21:29;13.00;99.90
29817;DHT22;16805;52.956;5.906;2022-09-17T07:23:55;13.10;99.90
29817;DHT22;16805;52.956;5.906;2022-09-17T07:26:21;13.00;99.90
29817;DHT22;16805;52.956;5.906;2022-09-17T07:28:47;12.80;99.90
29817;DHT22;16805;52.956;5.906;2022-09-17T07:31:13;12.80;99.90
29817;DHT22;16805;52.956;5.906;2022-09-17T07:33:39;12.60;99.90
29817;DHT22;16805;52.956;5.906;2022-09-17T07:36:07;12.50;99.90
29817;DHT22;16805;52.956;5.906;2022-09-17T07:38:33;12.60;99.90
29817;DHT22;16805;52.956;5.906;2022-09-17T07:41:04;12.60;99.90
29817;DHT22;16805;52.956;5.906;2022-09-17T07:43:32;12.70;99.90
29817;DHT22;16805;52.956;5.906;2022-09-17T07:46:02;12.70;99.90
29817;DHT22;16805;52.956;5.906;2022-09-17T07:48:28;12.80;99.90
29817;DHT22;16805;52.956;5.906;2022-09-17T07:50:54;13.00;99.90
29817;DHT22;16805;52.956;5.906;2022-09-17T07:53:21;13.30;99.90
29817;DHT22;16805;52.956;5.906;2022-09-17T07:55:51;13.60;99.90
29817;DHT22;16805;52.956;5.906;2022-09-17T07:58:17;13.90;99.90
29817;DHT22;16805;52.956;5.906;2022-09-17T08:00:43;14.20;99.90
29817;DHT22;16805;52.956;5.906;2022-09-17T08:03:08;14.50;99.90
29817;DHT22;16805;52.956;5.906;2022-09-17T08:05:34;14.80;99.90
29817;DHT22;16805;52.956;5.906;2022-09-17T08:08:00;14.90;99.90
29817;DHT22;16805;52.956;5.906;2022-09-17T08:10:25;15.00;99.90
29817;DHT22;16805;52.956;5.906;2022-09-17T08:12:55;15.00;99.90
29817;DHT22;16805;52.956;5.906;2022-09-17T08:15:22;14.70;99.90
29817;DHT22;16805;52.956;5.906;2022-09-17T08:17:48;14.40;99.90
29817;DHT22;16805;52.956;5.906;2022-09-17T08:20:15;14.20;99.90
29817;DHT22;16805;52.956;5.906;2022-09-17T08:22:41;14.10;99.90
29817;DHT22;16805;52.956;5.906;2022-09-17T08:25:07;13.90;99.90
29817;DHT22;16805;52.956;5.906;2022-09-17T08:27:34;13.80;99.90
29817;DHT22;16805;52.956;5.906;2022-09-17T08:30:00;13.70;99.90
29817;DHT22;16805;52.956;5.906;2022-09-17T08:32:28;13.70;99.90
29817;DHT22;16805;52.956;5.906;2022-09-17T08:34:54;13.70;99.90
29817;DHT22;16805;52.956;5.906;2022-09-17T08:37:19;13.90;99.90
29817;DHT22;16805;52.956;5.906;2022-09-17T08:39:45;14.10;99.90
29817;DHT22;16805;52.956;5.906;2022-09-17T08:44:44;14.70;99.90
29817;DHT22;16805;52.956;5.906;2022-09-17T08:47:15;14.90;99.90
29817;DHT22;16805;52.956;5.906;2022-09-17T08:49:49;15.10;99.90
29817;DHT22;16805;52.956;5.906;2022-09-17T08:55:21;15.10;99.90
29817;DHT22;16805;52.956;5.906;2022-09-17T09:00:45;15.00;99.90
29817;DHT22;16805;52.956;5.906;2022-09-17T09:06:12;14.80;99.90
29817;DHT22;16805;52.956;5.906;2022-09-17T09:08:48;14.90;99.90
29817;DHT22;16805;52.956;5.906;2022-09-17T09:11:20;15.00;99.90
29817;DHT22;16805;52.956;5.906;2022-09-17T09:13:51;15.20;99.90
29817;DHT22;16805;52.956;5.906;2022-09-17T09:16:24;15.50;99.90
29817;DHT22;16805;52.956;5.906;2022-09-17T09:18:53;15.70;99.90
29817;DHT22;16805;52.956;5.906;2022-09-17T09:24:08;16.00;99.90
29817;DHT22;16805;52.956;5.906;2022-09-17T09:26:57;16.20;99.90
29817;DHT22;16805;52.956;5.906;2022-09-17T09:30:05;16.30;99.90
29817;DHT22;16805;52.956;5.906;2022-09-17T09:38:00;16.20;99.90
29817;DHT22;16805;52.956;5.906;2022-09-17T09:43:22;16.00;99.90
29817;DHT22;16805;52.956;5.906;2022-09-17T09:46:17;16.10;99.90
29817;DHT22;16805;52.956;5.906;2022-09-17T09:49:07;16.20;99.90
29817;DHT22;16805;52.956;5.906;2022-09-17T09:51:58;16.20;99.90
29817;DHT22;16805;52.956;5.906;2022-09-17T09:57:47;16.40;99.90
29817;DHT22;16805;52.956;5.906;2022-09-17T10:00:36;16.50;99.90
29817;DHT22;16805;52.956;5.906;2022-09-17T10:05:36;16.40;99.90
29817;DHT22;16805;52.956;5.906;2022-09-17T10:08:13;16.10;99.90
29817;DHT22;16805;52.956;5.906;2022-09-17T10:10:59;15.80;99.90
29817;DHT22;16805;52.956;5.906;2022-09-17T10:13:27;15.70;99.90
29817;DHT22;16805;52.956;5.906;2022-09-17T10:15:53;15.70;99.90
29817;DHT22;16805;52.956;5.906;2022-09-17T10:18:24;15.70;99.90
29817;DHT22;16805;52.956;5.906;2022-09-17T10:20:57;15.70;99.90
29817;DHT22;16805;52.956;5.906;2022-09-17T10:23:25;15.70;99.90
29817;DHT22;16805;52.956;5.906;2022-09-17T10:25:52;15.70;99.90
29817;DHT22;16805;52.956;5.906;2022-09-17T10:31:05;15.80;99.90
29817;DHT22;16805;52.956;5.906;2022-09-17T10:34:21;15.90;99.90
29817;DHT22;16805;52.956;5.906;2022-09-17T10:36:42;15.90;99.90
29817;DHT22;16805;52.956;5.906;2022-09-17T10:41:56;15.50;99.90
29817;DHT22;16805;52.956;5.906;2022-09-17T10:44:24;15.30;99.90
29817;DHT22;16805;52.956;5.906;2022-09-17T10:46:51;15.20;99.90
29817;DHT22;16805;52.956;5.906;2022-09-17T10:52:34;14.90;99.90
29817;DHT22;16805;52.956;5.906;2022-09-17T11:00:46;14.70;99.90
29817;DHT22;16805;52.956;5.906;2022-09-17T11:25:24;14.80;99.90
29817;DHT22;16805;52.956;5.906;2022-09-17T11:42:10;14.70;99.90
29817;DHT22;16805;52.956;5.906;2022-09-17T11:44:42;14.60;99.90
29817;DHT22;16805;52.956;5.906;2022-09-17T11:47:17;14.50;99.90
29817;DHT22;16805;52.956;5.906;2022-09-17T11:49:53;14.50;99.90
29817;DHT22;16805;52.956;5.906;2022-09-17T11:52:25;14.50;99.90
29817;DHT22;16805;52.956;5.906;2022-09-17T11:57:59;14.70;99.90
29817;DHT22;16805;52.956;5.906;2022-09-17T12:00:27;14.80;99.90
29817;DHT22;16805;52.956;5.906;2022-09-17T12:03:00;14.80;99.90
29817;DHT22;16805;52.956;5.906;2022-09-17T12:05:47;14.80;99.90
29817;DHT22;16805;52.956;5.906;2022-09-17T12:09:04;14.80;99.90
29817;DHT22;16805;52.956;5.906;2022-09-17T12:11:16;14.80;99.90
29817;DHT22;16805;52.956;5.906;2022-09-17T12:13:47;14.80;99.90
29817;DHT22;16805;52.956;5.906;2022-09-17T12:16:24;14.80;99.90
29817;DHT22;16805;52.956;5.906;2022-09-17T12:19:01;14.80;99.90
29817;DHT22;16805;52.956;5.906;2022-09-17T12:21:39;14.80;99.90
29817;DHT22;16805;52.956;5.906;2022-09-17T12:24:10;14.80;99.90
29817;DHT22;16805;52.956;5.906;2022-09-17T12:37:13;14.80;99.90
29817;DHT22;16805;52.956;5.906;2022-09-17T12:51:09;14.90;99.90
29817;DHT22;16805;52.956;5.906;2022-09-17T12:53:44;14.90;99.90
29817;DHT22;16805;52.956;5.906;2022-09-17T12:59:12;15.00;99.90
29817;DHT22;16805;52.956;5.906;2022-09-17T13:10:02;14.80;99.90
29817;DHT22;16805;52.956;5.906;2022-09-17T13:12:33;14.70;99.90
29817;DHT22;16805;52.956;5.906;2022-09-17T13:18:05;14.70;99.90
29817;DHT22;16805;52.956;5.906;2022-09-17T13:21:14;14.70;99.90
29817;DHT22;16805;52.956;5.906;2022-09-17T13:23:41;14.70;99.90
29817;DHT22;16805;52.956;5.906;2022-09-17T13:26:09;14.70;99.90
29817;DHT22;16805;52.956;5.906;2022-09-17T13:28:49;14.70;99.90
29817;DHT22;16805;52.956;5.906;2022-09-17T13:33:56;14.70;99.90
29817;DHT22;16805;52.956;5.906;2022-09-17T13:36:48;14.70;99.90
29817;DHT22;16805;52.956;5.906;2022-09-17T13:39:46;14.70;99.90
29817;DHT22;16805;52.956;5.906;2022-09-17T13:42:30;14.80;99.90
29817;DHT22;16805;52.956;5.906;2022-09-17T13:45:09;14.80;99.90
29817;DHT22;16805;52.956;5.906;2022-09-17T13:52:51;14.70;99.90
29817;DHT22;16805;52.956;5.906;2022-09-17T13:55:48;14.60;99.90
29817;DHT22;16805;52.956;5.906;2022-09-17T14:24:25;14.40;99.90
29817;DHT22;16805;52.956;5.906;2022-09-17T14:30:04;14.20;99.90
29817;DHT22;16805;52.956;5.906;2022-09-17T14:32:43;14.20;99.90
29817;DHT22;16805;52.956;5.906;2022-09-17T14:35:23;14.10;99.90
29817;DHT22;16805;52.956;5.906;2022-09-17T14:37:53;14.10;99.90
29817;DHT22;16805;52.956;5.906;2022-09-17T14:40:20;14.10;99.90
29817;DHT22;16805;52.956;5.906;2022-09-17T14:42:50;14.10;99.90
29817;DHT22;16805;52.956;5.906;2022-09-17T14:45:20;14.00;99.90
29817;DHT22;16805;52.956;5.906;2022-09-17T14:47:47;14.00;99.90
29817;DHT22;16805;52.956;5.906;2022-09-17T14:50:23;14.00;99.90
29817;DHT22;16805;52.956;5.906;2022-09-17T14:52:51;14.10;99.90
29817;DHT22;16805;52.956;5.906;2022-09-17T14:55:24;14.10;99.90
29817;DHT22;16805;52.956;5.906;2022-09-17T14:57:53;14.10;99.90
29817;DHT22;16805;52.956;5.906;2022-09-17T15:00:25;14.10;99.90
29817;DHT22;16805;52.956;5.906;2022-09-17T15:02:56;14.10;99.90
29817;DHT22;16805;52.956;5.906;2022-09-17T15:05:33;14.20;99.90
29817;DHT22;16805;52.956;5.906;2022-09-17T15:11:17;14.30;99.90
29817;DHT22;16805;52.956;5.906;2022-09-17T15:13:33;14.30;99.90
29817;DHT22;16805;52.956;5.906;2022-09-17T15:16:04;14.30;99.90
29817;DHT22;16805;52.956;5.906;2022-09-17T15:18:46;14.30;99.90
29817;DHT22;16805;52.956;5.906;2022-09-17T15:21:35;14.30;99.90
29817;DHT22;16805;52.956;5.906;2022-09-17T15:26:52;14.30;99.90
29817;DHT22;16805;52.956;5.906;2022-09-17T15:29:22;14.30;99.90
29817;DHT22;16805;52.956;5.906;2022-09-17T15:31:48;14.20;99.90
29817;DHT22;16805;52.956;5.906;2022-09-17T15:34:13;14.20;99.90
29817;DHT22;16805;52.956;5.906;2022-09-17T15:37:05;14.20;99.90
29817;DHT22;16805;52.956;5.906;2022-09-17T15:39:38;14.10;99.90
29817;DHT22;16805;52.956;5.906;2022-09-17T15:42:04;14.10;99.90
29817;DHT22;16805;52.956;5.906;2022-09-17T15:44:30;14.10;99.90
29817;DHT22;16805;52.956;5.906;2022-09-17T15:50:19;14.10;99.90
29817;DHT22;16805;52.956;5.906;2022-09-17T15:52:45;14.00;99.90
29817;DHT22;16805;52.956;5.906;2022-09-17T15:58:18;14.00;99.90
29817;DHT22;16805;52.956;5.906;2022-09-17T16:00:44;14.00;99.90
29817;DHT22;16805;52.956;5.906;2022-09-17T16:08:43;14.00;99.90
29817;DHT22;16805;52.956;5.906;2022-09-17T16:11:14;13.90;99.90
29817;DHT22;16805;52.956;5.906;2022-09-17T16:13:40;13.90;99.90
29817;DHT22;16805;52.956;5.906;2022-09-17T16:16:08;13.90;99.90
29817;DHT22;16805;52.956;5.906;2022-09-17T16:18:38;13.90;99.90
29817;DHT22;16805;52.956;5.906;2022-09-17T16:21:04;13.90;99.90
29817;DHT22;16805;52.956;5.906;2022-09-17T16:23:29;13.90;99.90
29817;DHT22;16805;52.956;5.906;2022-09-17T16:25:56;13.90;99.90
29817;DHT22;16805;52.956;5.906;2022-09-17T16:28:22;13.80;99.90
29817;DHT22;16805;52.956;5.906;2022-09-17T16:30:48;13.80;99.90
29817;DHT22;16805;52.956;5.906;2022-09-17T16:33:16;13.80;99.90
29817;DHT22;16805;52.956;5.906;2022-09-17T16:35:42;13.80;99.90
29817;DHT22;16805;52.956;5.906;2022-09-17T16:38:08;13.80;99.90
29817;DHT22;16805;52.956;5.906;2022-09-17T16:40:39;13.70;99.90
29817;DHT22;16805;52.956;5.906;2022-09-17T16:43:05;13.70;99.90
29817;DHT22;16805;52.956;5.906;2022-09-17T16:45:31;13.70;99.90
29817;DHT22;16805;52.956;5.906;2022-09-17T16:47:56;13.60;99.90
29817;DHT22;16805;52.956;5.906;2022-09-17T16:50:23;13.60;99.90
29817;DHT22;16805;52.956;5.906;2022-09-17T16:52:48;13.70;99.90
29817;DHT22;16805;52.956;5.906;2022-09-17T16:55:16;13.60;99.90
29817;DHT22;16805;52.956;5.906;2022-09-17T16:57:42;13.70;99.90
29817;DHT22;16805;52.956;5.906;2022-09-17T17:00:10;13.60;99.90
29817;DHT22;16805;52.956;5.906;2022-09-17T17:02:37;13.60;99.90
29817;DHT22;16805;52.956;5.906;2022-09-17T17:05:03;13.60;99.90
29817;DHT22;16805;52.956;5.906;2022-09-17T17:07:29;13.60;99.90
29817;DHT22;16805;52.956;5.906;2022-09-17T17:09:56;13.60;99.90
29817;DHT22;16805;52.956;5.906;2022-09-17T17:12:23;13.60;99.90
29817;DHT22;16805;52.956;5.906;2022-09-17T17:14:49;13.60;99.90
29817;DHT22;16805;52.956;5.906;2022-09-17T17:17:17;13.50;99.90
29817;DHT22;16805;52.956;5.906;2022-09-17T17:19:43;13.50;99.90
29817;DHT22;16805;52.956;5.906;2022-09-17T17:22:10;13.40;99.90
29817;DHT22;16805;52.956;5.906;2022-09-17T17:24:36;13.50;99.90
29817;DHT22;16805;52.956;5.906;2022-09-17T17:27:01;13.50;99.90
29817;DHT22;16805;52.956;5.906;2022-09-17T17:29:28;13.40;99.90
29817;DHT22;16805;52.956;5.906;2022-09-17T17:31:54;13.40;99.90
29817;DHT22;16805;52.956;5.906;2022-09-17T17:34:19;13.40;99.90
29817;DHT22;16805;52.956;5.906;2022-09-17T17:36:48;13.40;99.90
29817;DHT22;16805;52.956;5.906;2022-09-17T17:39:14;13.30;99.90
29817;DHT22;16805;52.956;5.906;2022-09-17T17:41:40;13.30;99.90
29817;DHT22;16805;52.956;5.906;2022-09-17T17:44:05;13.30;99.90
29817;DHT22;16805;52.956;5.906;2022-09-17T17:46:31;13.30;99.90
29817;DHT22;16805;52.956;5.906;2022-09-17T17:48:57;13.30;99.90
29817;DHT22;16805;52.956;5.906;2022-09-17T17:51:22;13.30;99.90
29817;DHT22;16805;52.956;5.906;2022-09-17T17:53:48;13.30;99.90
29817;DHT22;16805;52.956;5.906;2022-09-17T17:56:15;13.30;99.90
29817;DHT22;16805;52.956;5.906;2022-09-17T17:58:41;13.20;99.90
29817;DHT22;16805;52.956;5.906;2022-09-17T18:01:11;13.20;99.90
29817;DHT22;16805;52.956;5.906;2022-09-17T18:03:37;13.10;99.90
29817;DHT22;16805;52.956;5.906;2022-09-17T18:06:04;13.00;99.90
29817;DHT22;16805;52.956;5.906;2022-09-17T18:08:31;12.90;99.90
29817;DHT22;16805;52.956;5.906;2022-09-17T18:10:57;12.90;99.90
29817;DHT22;16805;52.956;5.906;2022-09-17T18:13:28;12.80;99.90
29817;DHT22;16805;52.956;5.906;2022-09-17T18:15:59;12.80;99.90
29817;DHT22;16805;52.956;5.906;2022-09-17T18:18:32;12.70;99.90
29817;DHT22;16805;52.956;5.906;2022-09-17T18:21:03;12.70;99.90
29817;DHT22;16805;52.956;5.906;2022-09-17T18:23:32;12.70;99.90
29817;DHT22;16805;52.956;5.906;2022-09-17T18:25:59;12.60;99.90
29817;DHT22;16805;52.956;5.906;2022-09-17T18:28:26;12.60;99.90
29817;DHT22;16805;52.956;5.906;2022-09-17T18:30:53;12.60;99.90
29817;DHT22;16805;52.956;5.906;2022-09-17T18:33:25;12.50;99.90
29817;DHT22;16805;52.956;5.906;2022-09-17T18:35:52;12.50;99.90
29817;DHT22;16805;52.956;5.906;2022-09-17T18:38:22;12.40;99.90
29817;DHT22;16805;52.956;5.906;2022-09-17T18:40:48;12.50;99.90
29817;DHT22;16805;52.956;5.906;2022-09-17T18:43:13;12.40;99.90
29817;DHT22;16805;52.956;5.906;2022-09-17T18:45:39;12.30;99.90
29817;DHT22;16805;52.956;5.906;2022-09-17T18:48:06;12.30;99.90
29817;DHT22;16805;52.956;5.906;2022-09-17T18:50:31;12.30;99.90
29817;DHT22;16805;52.956;5.906;2022-09-17T18:52:57;12.30;99.90
29817;DHT22;16805;52.956;5.906;2022-09-17T18:55:23;12.30;99.90
29817;DHT22;16805;52.956;5.906;2022-09-17T18:57:49;12.20;99.90
29817;DHT22;16805;52.956;5.906;2022-09-17T19:00:19;12.20;99.90
29817;DHT22;16805;52.956;5.906;2022-09-17T19:02:47;12.20;99.90
29817;DHT22;16805;52.956;5.906;2022-09-17T19:05:13;12.20;99.90
29817;DHT22;16805;52.956;5.906;2022-09-17T19:07:46;12.10;99.90
29817;DHT22;16805;52.956;5.906;2022-09-17T19:10:12;12.20;99.90
29817;DHT22;16805;52.956;5.906;2022-09-17T19:12:38;12.20;99.90
29817;DHT22;16805;52.956;5.906;2022-09-17T19:15:05;12.20;99.90
29817;DHT22;16805;52.956;5.906;2022-09-17T19:17:31;12.20;99.90
29817;DHT22;16805;52.956;5.906;2022-09-17T19:19:56;12.20;99.90